This is the latest recevied weather packets stored in our database for station/object N4HAC. If no packets are shown the sender has not sent any weather packets the latest 10 day(s).
| Time | Temp. | Humidity | Pressure | Rain* | Wind** | Luminosity | Snow |
|---|---|---|---|---|---|---|---|
| 1777359801 | 9.44° C | 81% | 1016.5 hPa | 0 mm | - | 0 W/m² | - |
| 1777359498 | 9.44° C | 81% | 1016.6 hPa | 0 mm | - | 0 W/m² | - |
| 1777359194 | 9.44° C | 81% | 1016.7 hPa | 0 mm | - | 0 W/m² | - |
| 1777358893 | 8.89° C | 82% | 1016.6 hPa | 0 mm | - | 0 W/m² | - |
| 1777358589 | 8.89° C | 84% | 1016.7 hPa | 0 mm | - | 0 W/m² | - |
| 1777358287 | 8.89° C | 84% | 1016.6 hPa | 0 mm | - | 0 W/m² | - |
| 1777357985 | 8.33° C | 85% | 1016.7 hPa | 0 mm | - | 0 W/m² | - |
| 1777357682 | 8.33° C | 86% | 1016.7 hPa | 0 mm | - | 0 W/m² | - |
| 1777357378 | 7.78° C | 88% | 1016.8 hPa | 0 mm | - | 0 W/m² | - |
| 1777357075 | 7.78° C | 88% | 1017 hPa | 0 mm | - | 0 W/m² | - |
| 1777356772 | 7.78° C | 87% | 1016.8 hPa | 0 mm | - | 0 W/m² | - |
| 1777356470 | 8.33° C | 84% | 1016.8 hPa | 0 mm | - | 0 W/m² | - |
| 1777356166 | 8.89° C | 83% | 1017 hPa | 0 mm | - | 0 W/m² | - |
| 1777355863 | 8.89° C | 82% | 1017 hPa | 0 mm | - | 0 W/m² | - |
| 1777355560 | 8.89° C | 83% | 1017 hPa | 0 mm | - | 0 W/m² | - |
| 1777355257 | 8.33° C | 85% | 1016.9 hPa | 0 mm | - | 0 W/m² | - |
| 1777354953 | 8.33° C | 87% | 1017 hPa | 0 mm | - | 0 W/m² | - |
| 1777354649 | 8.33° C | 86% | 1016.8 hPa | 0 mm | - | 0 W/m² | - |
| 1777354345 | 7.78° C | 91% | 1016.9 hPa | 0 mm | - | 0 W/m² | - |
| 1777354042 | 7.78° C | 92% | 1017 hPa | 0 mm | - | 0 W/m² | - |
| 1777353738 | 7.78° C | 91% | 1017 hPa | 0 mm | - | 0 W/m² | - |
| 1777353436 | 8.33° C | 88% | 1016.7 hPa | 0 mm | - | 0 W/m² | - |
| 1777353135 | 8.33° C | 87% | 1016.7 hPa | 0 mm | - | 0 W/m² | - |
| 1777352832 | 7.78° C | 87% | 1017.1 hPa | 0 mm | - | 0 W/m² | - |
| 1777352530 | 8.33° C | 87% | 1016.9 hPa | 0 mm | - | 0 W/m² | - |
* Rain latest hour (hover to see other rain measurements)
** Current wind speed in m/s (hover to see current wind gust speed)